createdAt,value
2022-11-16T00:02:12.113Z,4.20
2022-11-16T00:04:40.058Z,4.57
2022-11-16T00:07:07.936Z,6.67
2022-11-16T00:09:37.501Z,6.20
2022-11-16T00:12:08.801Z,7.00
2022-11-16T00:14:37.590Z,8.13
2022-11-16T00:17:05.901Z,9.00
2022-11-16T00:19:33.636Z,9.13
2022-11-16T00:22:01.475Z,8.80
2022-11-16T00:24:29.283Z,10.30
2022-11-16T00:26:58.445Z,8.87
2022-11-16T00:29:27.811Z,9.90
2022-11-16T00:31:56.194Z,10.63
2022-11-16T00:34:24.858Z,10.90
2022-11-16T00:36:52.760Z,10.33
2022-11-16T00:39:20.943Z,9.90
2022-11-16T00:41:49.788Z,10.77
2022-11-16T00:44:19.908Z,11.77
2022-11-16T00:46:47.707Z,13.27
2022-11-16T00:49:16.154Z,14.43
2022-11-16T00:51:44.151Z,16.40
2022-11-16T00:54:12.350Z,15.37
2022-11-16T00:56:40.598Z,12.77
2022-11-16T00:59:08.811Z,12.63
2022-11-16T01:01:38.043Z,12.03
2022-11-16T01:04:07.314Z,10.37
2022-11-16T01:06:35.072Z,10.93
2022-11-16T01:09:03.302Z,10.87
2022-11-16T01:11:48.429Z,11.93
2022-11-16T01:14:16.376Z,14.23
2022-11-16T01:16:45.967Z,11.90
2022-11-16T01:19:13.753Z,12.37
2022-11-16T01:21:41.528Z,12.23
2022-11-16T01:24:09.415Z,10.93
2022-11-16T01:26:37.268Z,11.57
2022-11-16T01:29:05.247Z,11.13
2022-11-16T01:31:37.343Z,11.03
2022-11-16T01:34:07.189Z,10.37
2022-11-16T01:36:36.633Z,11.17
2022-11-16T01:39:06.143Z,9.43
2022-11-16T01:41:45.312Z,10.10
2022-11-16T01:44:46.749Z,9.03
2022-11-16T01:47:18.777Z,10.17
2022-11-16T01:49:51.076Z,10.43
2022-11-16T01:52:23.575Z,9.57
2022-11-16T01:54:53.815Z,12.17
2022-11-16T01:57:25.446Z,16.87
2022-11-16T02:00:03.334Z,15.50
2022-11-16T02:02:41.831Z,13.60
2022-11-16T02:05:23.225Z,12.80
2022-11-16T02:08:32.774Z,15.43
2022-11-16T02:11:21.148Z,12.67
2022-11-16T02:14:05.831Z,14.20
2022-11-16T02:16:42.103Z,12.23
2022-11-16T02:19:32.638Z,12.57
2022-11-16T02:22:10.883Z,11.10
2022-11-16T02:24:47.946Z,11.30
2022-11-16T02:28:01.316Z,11.10
2022-11-16T02:30:30.760Z,10.77
2022-11-16T02:33:03.755Z,8.60
2022-11-16T02:35:38.130Z,8.73
2022-11-16T02:38:12.160Z,9.43
2022-11-16T02:40:45.216Z,10.23
2022-11-16T02:43:22.084Z,10.30
2022-11-16T02:45:56.498Z,11.83
2022-11-16T02:48:31.447Z,14.40
2022-11-16T02:51:00.458Z,12.90
2022-11-16T02:53:28.941Z,13.50
2022-11-16T02:56:00.916Z,11.43
2022-11-16T02:58:30.000Z,13.77
2022-11-16T03:01:04.584Z,12.10
2022-11-16T03:03:42.169Z,10.90
2022-11-16T03:06:15.030Z,12.83
2022-11-16T03:08:48.840Z,9.97
2022-11-16T03:11:34.293Z,10.63
2022-11-16T03:14:06.724Z,10.87
2022-11-16T03:16:38.483Z,10.60
2022-11-16T03:19:09.999Z,9.70
2022-11-16T03:21:42.860Z,10.20
2022-11-16T03:24:11.283Z,10.17
2022-11-16T03:26:48.245Z,12.13
2022-11-16T03:29:24.674Z,11.30
2022-11-16T03:32:01.150Z,10.80
2022-11-16T03:34:34.330Z,9.10
2022-11-16T03:37:04.777Z,8.70
2022-11-16T03:39:35.882Z,9.77
2022-11-16T03:42:08.423Z,8.53
2022-11-16T03:44:37.343Z,9.17
2022-11-16T03:47:08.443Z,8.97
2022-11-16T03:49:36.246Z,9.00
2022-11-16T03:52:04.818Z,12.00
2022-11-16T03:54:34.000Z,12.97
2022-11-16T03:57:02.238Z,12.00
2022-11-16T03:59:30.051Z,16.37
2022-11-16T04:01:58.465Z,15.87
2022-11-16T04:04:45.079Z,16.83
2022-11-16T04:07:30.685Z,17.37
2022-11-16T04:10:16.291Z,14.47
2022-11-16T04:13:03.056Z,16.93
2022-11-16T04:15:48.354Z,13.77
2022-11-16T04:18:30.290Z,13.77
2022-11-16T04:21:17.657Z,13.20
2022-11-16T04:24:04.959Z,13.27
2022-11-16T04:26:50.139Z,13.90
2022-11-16T04:29:18.359Z,12.53
2022-11-16T04:32:04.236Z,11.97
2022-11-16T04:34:49.587Z,11.93
2022-11-16T04:37:37.157Z,10.00
2022-11-16T04:40:07.259Z,11.33
2022-11-16T04:42:35.034Z,12.27
2022-11-16T04:45:22.837Z,11.00
2022-11-16T04:47:53.732Z,10.23
2022-11-16T04:50:25.743Z,13.93
2022-11-16T04:52:54.874Z,14.90
2022-11-16T04:55:22.673Z,13.93
2022-11-16T04:57:51.995Z,13.30
2022-11-16T05:00:21.424Z,11.73
2022-11-16T05:02:50.881Z,14.40
2022-11-16T05:05:19.252Z,11.63
2022-11-16T05:07:49.195Z,12.63
2022-11-16T05:10:24.435Z,12.67
2022-11-16T05:12:53.875Z,13.53
2022-11-16T05:15:22.301Z,12.87
2022-11-16T05:17:51.128Z,13.17
2022-11-16T05:20:40.379Z,15.20
2022-11-16T05:23:29.630Z,13.73
2022-11-16T05:26:03.445Z,13.57
2022-11-16T05:28:31.568Z,13.67
2022-11-16T05:30:59.533Z,14.47
2022-11-16T05:33:29.381Z,12.97
2022-11-16T05:35:57.175Z,12.57
2022-11-16T05:38:25.134Z,12.73
2022-11-16T05:40:56.441Z,13.87
2022-11-16T05:43:25.599Z,12.93
2022-11-16T05:46:01.720Z,12.23
2022-11-16T05:48:29.614Z,12.90
2022-11-16T05:50:59.531Z,14.97
2022-11-16T05:53:38.239Z,13.10
2022-11-16T05:56:07.836Z,13.23
2022-11-16T05:58:40.808Z,15.87
2022-11-16T06:01:09.382Z,14.17
2022-11-16T06:03:37.859Z,13.43
2022-11-16T06:06:06.672Z,14.57
2022-11-16T06:08:36.151Z,13.07
2022-11-16T06:11:10.321Z,13.30
2022-11-16T06:13:41.106Z,13.47
2022-11-16T06:16:09.223Z,11.83
2022-11-16T06:18:39.370Z,14.43
2022-11-16T06:21:08.419Z,14.17
2022-11-16T06:23:36.627Z,14.00
2022-11-16T06:26:05.793Z,17.20
2022-11-16T06:28:34.480Z,15.47
2022-11-16T06:31:04.673Z,15.80
2022-11-16T06:33:36.628Z,14.23
2022-11-16T06:36:09.800Z,14.27
2022-11-16T06:38:38.533Z,12.03
2022-11-16T06:41:06.603Z,13.83
2022-11-16T06:43:40.042Z,14.53
2022-11-16T06:46:09.572Z,16.00
2022-11-16T06:48:39.870Z,14.43
2022-11-16T06:51:12.163Z,16.13
2022-11-16T06:53:40.108Z,14.33
2022-11-16T06:56:09.100Z,17.40
2022-11-16T06:58:43.176Z,15.93
2022-11-16T07:01:13.663Z,16.77
2022-11-16T07:03:44.033Z,16.80
2022-11-16T07:06:15.905Z,20.57
2022-11-16T07:08:46.535Z,22.27
2022-11-16T07:11:18.168Z,21.10
2022-11-16T07:13:45.922Z,24.10
2022-11-16T07:16:15.964Z,23.10
2022-11-16T07:18:50.959Z,20.67
2022-11-16T07:21:19.016Z,20.43
2022-11-16T07:23:47.107Z,26.70
2022-11-16T07:26:20.006Z,22.17
2022-11-16T07:28:59.391Z,25.83
2022-11-16T07:31:29.440Z,26.70
2022-11-16T07:34:16.103Z,24.33
2022-11-16T07:37:03.877Z,27.87
2022-11-16T07:39:31.720Z,27.97
2022-11-16T07:41:59.758Z,31.50
2022-11-16T07:44:46.882Z,31.43
2022-11-16T07:47:16.430Z,30.77
2022-11-16T07:49:44.348Z,24.93
2022-11-16T07:52:16.567Z,26.97
2022-11-16T07:55:05.761Z,30.17
2022-11-16T07:57:34.978Z,30.97
2022-11-16T08:00:07.514Z,26.87
2022-11-16T08:02:43.099Z,26.67
2022-11-16T08:05:17.897Z,28.17
2022-11-16T08:07:46.967Z,29.40
2022-11-16T08:10:15.275Z,28.37
2022-11-16T08:12:43.245Z,26.20
2022-11-16T08:15:14.112Z,24.70
2022-11-16T08:17:44.010Z,27.50
2022-11-16T08:20:13.780Z,24.97
2022-11-16T08:22:42.490Z,25.27
2022-11-16T08:25:10.974Z,32.03
2022-11-16T08:27:41.689Z,25.33
2022-11-16T08:30:11.020Z,26.77
2022-11-16T08:32:42.176Z,25.57
2022-11-16T08:35:12.253Z,25.40
2022-11-16T08:37:40.216Z,31.30
2022-11-16T08:40:10.463Z,25.87
2022-11-16T08:42:43.710Z,27.27
2022-11-16T08:45:12.680Z,26.50
2022-11-16T08:47:41.654Z,26.03
2022-11-16T08:50:11.315Z,25.73
2022-11-16T08:52:39.505Z,22.17
2022-11-16T08:55:08.141Z,21.27
2022-11-16T08:57:36.060Z,22.63
2022-11-16T09:00:09.662Z,19.70
2022-11-16T09:02:37.570Z,21.97
2022-11-16T09:05:07.937Z,21.90
2022-11-16T09:07:37.431Z,22.60
2022-11-16T09:10:06.203Z,22.90
2022-11-16T09:12:34.571Z,22.63
2022-11-16T09:15:02.410Z,19.90
2022-11-16T09:17:30.587Z,20.27
2022-11-16T09:19:58.630Z,21.00
2022-11-16T09:22:26.694Z,19.57
2022-11-16T09:24:55.872Z,20.13
2022-11-16T09:27:24.216Z,21.43
2022-11-16T09:29:52.053Z,21.03
2022-11-16T09:32:19.918Z,19.13
2022-11-16T09:34:47.787Z,22.03
2022-11-16T09:37:15.865Z,21.53
2022-11-16T09:39:43.892Z,23.20
2022-11-16T09:42:26.938Z,25.87
2022-11-16T09:45:00.741Z,21.63
2022-11-16T09:47:49.035Z,23.67
2022-11-16T09:50:27.816Z,22.80
2022-11-16T09:52:59.024Z,24.33
2022-11-16T09:55:33.620Z,24.37
2022-11-16T09:58:09.705Z,23.20
2022-11-16T10:00:42.761Z,24.23
2022-11-16T10:03:13.484Z,25.33
2022-11-16T10:05:47.698Z,26.03
2022-11-16T10:08:19.159Z,23.40
2022-11-16T10:10:55.787Z,23.27
2022-11-16T10:13:41.902Z,23.27
2022-11-16T10:16:18.345Z,21.70
2022-11-16T10:18:55.085Z,23.77
2022-11-16T10:21:46.995Z,22.57
2022-11-16T10:24:41.243Z,23.57
2022-11-16T10:27:23.113Z,22.33
2022-11-16T10:30:03.496Z,21.87
2022-11-16T10:32:34.103Z,22.30
2022-11-16T10:35:05.296Z,26.43
2022-11-16T10:37:36.620Z,24.07
2022-11-16T10:40:19.427Z,25.93
2022-11-16T10:42:55.804Z,24.37
2022-11-16T10:45:29.779Z,24.20
2022-11-16T10:48:02.902Z,24.97
2022-11-16T10:50:38.529Z,24.90
2022-11-16T10:53:06.576Z,23.10
2022-11-16T10:55:34.413Z,26.33
2022-11-16T10:58:03.899Z,23.77
2022-11-16T11:00:42.613Z,26.67
2022-11-16T11:03:12.003Z,23.50
2022-11-16T11:05:50.487Z,24.53
2022-11-16T11:08:28.258Z,19.77
2022-11-16T11:11:03.295Z,20.27
2022-11-16T11:13:34.687Z,21.27
2022-11-16T11:16:18.369Z,21.33
2022-11-16T11:18:46.277Z,21.80
2022-11-16T11:21:19.724Z,22.13
2022-11-16T11:23:50.846Z,22.27
2022-11-16T11:26:36.610Z,26.83
2022-11-16T11:29:18.071Z,32.00
2022-11-16T11:31:50.108Z,31.27
2022-11-16T11:34:22.869Z,35.10
2022-11-16T11:36:55.243Z,32.07
2022-11-16T11:39:34.864Z,31.90
2022-11-16T11:42:06.385Z,31.50
2022-11-16T11:44:43.705Z,26.63
2022-11-16T11:50:22.496Z,34.63
2022-11-16T11:53:03.863Z,31.73
2022-11-16T11:55:31.853Z,31.50
2022-11-16T11:58:01.674Z,30.03
2022-11-16T12:00:38.153Z,31.33
2022-11-16T12:03:44.518Z,24.53
2022-11-16T12:06:20.675Z,26.53
2022-11-16T12:09:11.659Z,25.57
2022-11-16T12:11:54.630Z,24.87
2022-11-16T12:14:35.918Z,21.70
2022-11-16T12:17:13.121Z,26.37
2022-11-16T12:20:08.569Z,26.80
2022-11-16T12:22:51.533Z,32.10
2022-11-16T12:25:26.408Z,29.93
2022-11-16T12:28:12.225Z,31.47
2022-11-16T12:30:51.333Z,34.23
2022-11-16T12:33:31.039Z,37.63
2022-11-16T12:36:05.713Z,40.97
2022-11-16T12:38:53.695Z,36.43
2022-11-16T12:41:49.113Z,35.97
2022-11-16T12:44:24.879Z,37.77
2022-11-16T12:47:00.178Z,32.47
2022-11-16T12:49:47.280Z,36.87
2022-11-16T12:52:34.059Z,34.70
2022-11-16T12:55:26.060Z,37.07
2022-11-16T12:58:08.838Z,33.17
2022-11-16T13:00:55.170Z,33.33
2022-11-16T13:03:34.606Z,31.20
2022-11-16T13:06:06.292Z,35.87
2022-11-16T13:08:45.205Z,38.60
2022-11-16T13:11:19.176Z,36.63
2022-11-16T13:13:53.377Z,30.87
2022-11-16T13:16:23.075Z,31.70
2022-11-16T13:18:52.358Z,35.13
2022-11-16T13:21:32.345Z,30.43
2022-11-16T13:24:13.890Z,26.53
2022-11-16T13:26:46.168Z,26.03
2022-11-16T13:29:22.618Z,25.73
2022-11-16T13:31:58.041Z,25.00
2022-11-16T13:34:30.125Z,29.03
2022-11-16T13:36:58.446Z,28.03
2022-11-16T13:39:59.459Z,26.47
2022-11-16T13:42:30.186Z,26.30
2022-11-16T13:45:07.906Z,25.13
2022-11-16T13:47:36.764Z,28.00
2022-11-16T13:50:09.546Z,22.97
2022-11-16T13:53:19.876Z,25.13
2022-11-16T13:55:34.907Z,21.77
2022-11-16T13:58:06.176Z,24.07
2022-11-16T14:00:42.610Z,21.90
2022-11-16T14:03:29.364Z,21.97
2022-11-16T14:05:57.700Z,22.33
2022-11-16T14:08:49.103Z,23.47
2022-11-16T14:11:32.353Z,20.23
2022-11-16T14:14:05.653Z,22.13
2022-11-16T14:16:44.902Z,22.00
2022-11-16T14:19:55.152Z,20.63
2022-11-16T14:22:41.463Z,19.07
2022-11-16T14:25:23.717Z,21.47
2022-11-16T14:27:58.404Z,19.23
2022-11-16T14:30:32.057Z,19.83
2022-11-16T14:33:03.228Z,17.57
2022-11-16T14:35:35.100Z,17.40
2022-11-16T14:38:05.745Z,15.93
2022-11-16T14:40:43.076Z,13.27
2022-11-16T14:43:19.401Z,14.20
2022-11-16T14:45:53.485Z,12.50
2022-11-16T14:48:25.834Z,13.57
2022-11-16T14:51:11.307Z,11.10
2022-11-16T14:53:42.852Z,10.63
2022-11-16T14:56:12.348Z,10.17
2022-11-16T14:58:40.863Z,10.77
2022-11-16T15:01:15.839Z,9.33
2022-11-16T15:03:56.977Z,9.13
2022-11-16T15:06:27.715Z,10.87
2022-11-16T15:09:00.542Z,8.40
2022-11-16T15:11:44.930Z,7.50
2022-11-16T15:14:15.839Z,8.53
2022-11-16T15:16:52.180Z,7.20
2022-11-16T15:19:20.530Z,8.47
2022-11-16T15:21:53.414Z,10.00
2022-11-16T15:24:30.965Z,10.13
2022-11-16T15:27:10.825Z,9.17
2022-11-16T15:29:39.542Z,11.70
2022-11-16T15:32:16.772Z,11.03
2022-11-16T15:34:49.430Z,13.00
2022-11-16T15:37:27.785Z,12.70
2022-11-16T15:39:56.949Z,11.20
2022-11-16T15:42:29.278Z,10.73
2022-11-16T15:44:57.817Z,12.37
2022-11-16T15:47:27.455Z,11.57
2022-11-16T15:49:55.834Z,14.83
2022-11-16T15:52:44.476Z,18.17
2022-11-16T15:55:23.769Z,18.33
2022-11-16T15:58:02.235Z,21.23
2022-11-16T16:00:31.755Z,18.03
2022-11-16T16:03:06.284Z,17.17
2022-11-16T16:05:39.255Z,18.47
2022-11-16T16:08:07.808Z,17.17
2022-11-16T16:10:36.126Z,16.43
2022-11-16T16:13:04.389Z,19.43
2022-11-16T16:15:36.144Z,20.07
2022-11-16T16:18:34.980Z,17.37
2022-11-16T16:21:04.226Z,15.77
2022-11-16T16:23:32.517Z,15.33
2022-11-16T16:26:04.226Z,16.13
2022-11-16T16:28:32.441Z,14.57
2022-11-16T16:31:00.457Z,14.37
2022-11-16T16:33:29.946Z,11.23
2022-11-16T16:35:59.814Z,13.07
2022-11-16T16:38:27.923Z,11.43
2022-11-16T16:41:00.977Z,11.97
2022-11-16T16:43:30.205Z,11.83
2022-11-16T16:46:01.323Z,12.00
2022-11-16T16:48:30.641Z,10.13
2022-11-16T16:50:58.624Z,9.53
2022-11-16T16:53:26.627Z,11.23
2022-11-16T16:55:54.505Z,10.20
2022-11-16T16:58:22.399Z,8.53
2022-11-16T17:00:50.472Z,8.97
2022-11-16T17:03:18.450Z,8.93
2022-11-16T17:05:47.833Z,8.90
2022-11-16T17:08:15.730Z,10.17
2022-11-16T17:10:43.629Z,12.87
2022-11-16T17:13:11.613Z,10.77
2022-11-16T17:15:39.549Z,8.70
2022-11-16T17:18:07.638Z,8.30
2022-11-16T17:20:35.726Z,7.40
2022-11-16T17:23:04.947Z,8.67
2022-11-16T17:25:33.175Z,7.13
2022-11-16T17:28:02.199Z,6.97
2022-11-16T17:30:32.982Z,9.13
2022-11-16T17:33:00.854Z,8.03
2022-11-16T17:35:28.754Z,9.60
2022-11-16T17:37:58.673Z,7.30
2022-11-16T17:40:28.007Z,8.23
2022-11-16T17:42:56.455Z,6.33
2022-11-16T17:45:24.440Z,6.77
2022-11-16T17:47:54.598Z,6.40
2022-11-16T17:50:22.511Z,5.67
2022-11-16T17:52:50.668Z,7.33
2022-11-16T17:55:18.655Z,7.00
2022-11-16T17:57:49.015Z,6.00
2022-11-16T18:00:18.122Z,6.43
2022-11-16T18:02:46.150Z,4.97
2022-11-16T18:05:14.080Z,6.57
2022-11-16T18:07:42.084Z,5.60
2022-11-16T18:10:12.714Z,5.37
2022-11-16T18:12:44.324Z,6.13
2022-11-16T18:15:28.147Z,5.80
2022-11-16T18:17:57.109Z,5.20
2022-11-16T18:20:24.999Z,5.97
2022-11-16T18:22:52.850Z,5.80
2022-11-16T18:25:20.689Z,4.90
2022-11-16T18:27:51.979Z,6.10
2022-11-16T18:30:21.934Z,5.20
2022-11-16T18:32:50.392Z,4.83
2022-11-16T18:35:18.621Z,4.17
2022-11-16T18:37:46.697Z,4.17
2022-11-16T18:40:15.510Z,3.27
2022-11-16T18:42:43.344Z,4.10
2022-11-16T18:45:11.622Z,3.80
2022-11-16T18:47:40.877Z,4.33
2022-11-16T18:50:18.227Z,4.23
2022-11-16T18:52:48.042Z,4.03
2022-11-16T18:55:15.954Z,3.43
2022-11-16T18:57:43.840Z,3.37
2022-11-16T19:00:15.094Z,3.73
2022-11-16T19:02:44.561Z,3.70
2022-11-16T19:05:12.425Z,3.57
2022-11-16T19:07:40.360Z,3.73
2022-11-16T19:10:09.648Z,4.20
2022-11-16T19:12:37.667Z,3.50
2022-11-16T19:15:06.256Z,3.93
2022-11-16T19:17:34.377Z,4.27
2022-11-16T19:20:05.454Z,4.10
2022-11-16T19:22:33.985Z,4.33
2022-11-16T19:25:06.027Z,4.70
2022-11-16T19:27:34.264Z,4.50
2022-11-16T19:30:02.110Z,4.17
2022-11-16T19:32:32.062Z,4.23
2022-11-16T19:34:59.903Z,4.90
2022-11-16T19:37:29.109Z,4.33
2022-11-16T19:39:56.973Z,4.53
2022-11-16T19:42:24.720Z,3.97
2022-11-16T19:44:52.485Z,4.40
2022-11-16T19:47:23.048Z,3.73
2022-11-16T19:49:51.124Z,4.37
2022-11-16T19:52:18.874Z,3.83
2022-11-16T19:54:48.177Z,3.57
2022-11-16T19:57:20.344Z,3.33
2022-11-16T19:59:48.129Z,3.10
2022-11-16T20:02:15.916Z,3.60
2022-11-16T20:04:43.679Z,3.10
2022-11-16T20:07:13.256Z,4.27
2022-11-16T20:09:40.990Z,3.13
2022-11-16T20:12:10.054Z,3.40
2022-11-16T20:14:37.842Z,3.40
2022-11-16T20:17:05.987Z,3.80
2022-11-16T20:19:33.687Z,4.10
2022-11-16T20:22:01.404Z,3.70
2022-11-16T20:24:29.179Z,4.33
2022-11-16T20:26:56.942Z,4.43
2022-11-16T20:29:26.231Z,3.60
2022-11-16T20:31:53.947Z,4.03
2022-11-16T20:34:22.191Z,3.70
2022-11-16T20:36:50.831Z,3.57
2022-11-16T20:39:20.596Z,4.17
2022-11-16T20:41:48.996Z,3.40
2022-11-16T20:44:21.123Z,3.70
2022-11-16T20:46:52.120Z,3.70
2022-11-16T20:49:19.945Z,3.87
2022-11-16T20:51:48.430Z,3.80
2022-11-16T20:54:16.236Z,3.93
2022-11-16T20:56:44.425Z,5.70
2022-11-16T20:59:12.418Z,3.67
2022-11-16T21:01:41.545Z,3.63
2022-11-16T21:04:10.987Z,3.80
2022-11-16T21:06:38.726Z,4.40
2022-11-16T21:09:06.992Z,4.70
2022-11-16T21:11:55.749Z,5.50
2022-11-16T21:14:23.349Z,5.83
2022-11-16T21:16:51.109Z,4.17
2022-11-16T21:19:20.382Z,4.37
2022-11-16T21:21:48.162Z,4.30
2022-11-16T21:24:16.041Z,4.10
2022-11-16T21:26:43.765Z,4.40
2022-11-16T21:29:11.523Z,4.23
2022-11-16T21:31:39.401Z,4.73
2022-11-16T21:34:07.544Z,4.57
2022-11-16T21:36:37.012Z,5.13
2022-11-16T21:39:05.132Z,4.63
2022-11-16T21:41:32.847Z,4.00
2022-11-16T21:44:00.707Z,5.43
2022-11-16T21:46:28.872Z,4.03
2022-11-16T21:48:57.208Z,5.17
2022-11-16T21:51:27.029Z,4.60
2022-11-16T21:53:56.437Z,4.50
2022-11-16T21:56:25.985Z,4.70
2022-11-16T21:58:54.684Z,5.53
2022-11-16T22:01:23.620Z,4.90
2022-11-16T22:04:05.618Z,4.97
2022-11-16T22:06:50.729Z,5.03
2022-11-16T22:09:19.874Z,5.90
2022-11-16T22:11:47.616Z,6.27
2022-11-16T22:14:15.366Z,5.27
2022-11-16T22:16:43.173Z,9.83
2022-11-16T22:19:10.959Z,6.07
2022-11-16T22:21:38.806Z,5.90
2022-11-16T22:24:07.413Z,5.53
2022-11-16T22:26:37.957Z,5.50
2022-11-16T22:29:05.820Z,4.67
2022-11-16T22:31:33.834Z,4.80
2022-11-16T22:34:01.610Z,5.07
2022-11-16T22:36:29.353Z,5.20
2022-11-16T22:38:57.464Z,4.43
2022-11-16T22:41:25.254Z,4.33
2022-11-16T22:43:54.571Z,4.80
2022-11-16T22:46:22.303Z,4.80
2022-11-16T22:48:50.111Z,4.27
2022-11-16T22:51:20.903Z,4.00
2022-11-16T22:53:48.874Z,3.47
2022-11-16T22:56:16.644Z,3.93
2022-11-16T22:58:44.454Z,3.80
2022-11-16T23:01:13.627Z,3.77
2022-11-16T23:03:41.545Z,4.73
2022-11-16T23:06:09.653Z,3.37
2022-11-16T23:08:39.885Z,3.37
2022-11-16T23:11:26.808Z,2.60
2022-11-16T23:14:13.176Z,3.57
2022-11-16T23:16:42.547Z,3.33
2022-11-16T23:19:26.898Z,3.17
2022-11-16T23:22:12.568Z,2.70
2022-11-16T23:24:57.777Z,2.93
2022-11-16T23:27:32.358Z,3.37
2022-11-16T23:30:05.374Z,3.63
2022-11-16T23:32:36.987Z,3.20
2022-11-16T23:35:05.213Z,2.87
2022-11-16T23:37:32.994Z,3.67
2022-11-16T23:40:01.148Z,3.07
2022-11-16T23:42:46.416Z,3.63
2022-11-16T23:45:14.375Z,3.27
2022-11-16T23:47:43.543Z,3.20
2022-11-16T23:50:11.284Z,3.43
2022-11-16T23:52:39.080Z,3.27
2022-11-16T23:55:07.831Z,3.13
2022-11-16T23:57:35.590Z,3.10
